Time;durP1;ratioP1;P1;durP2;ratioP2;P2;SDS_P1;SDS_P2;PMS_P1;PMS_P2;Temp;Humidity;BMP_temperature;BMP_pressure;BME280_temperature;BME280_humidity;BME280_pressure;Samples;Min_cycle;Max_cycle;Signal;HPM_P1;HPM_P2
2021/05/04 00:00:57;;;;;;;6.60;6.10;;;11.20;93.20;;;;;;5024572;28;20188;-68
2021/05/04 00:03:22;;;;;;;5.77;5.13;;;11.20;93.50;;;;;;5030794;28;20216;-70
2021/05/04 00:05:48;;;;;;;6.83;6.23;;;11.20;93.90;;;;;;5026628;28;20179;-69
2021/05/04 00:08:14;;;;;;;6.20;5.60;;;11.20;94.20;;;;;;5026091;28;20242;-69
2021/05/04 00:10:39;;;;;;;6.30;5.53;;;11.10;94.50;;;;;;5027972;28;20196;-70
2021/05/04 00:13:05;;;;;;;6.87;6.27;;;11.10;94.80;;;;;;5026883;28;20192;-73
2021/05/04 00:15:33;;;;;;;5.87;5.47;;;11.10;95.00;;;;;;5027157;28;20829;-68
2021/05/04 00:17:59;;;;;;;5.77;5.33;;;11.10;95.30;;;;;;5021020;28;20204;-68
2021/05/04 00:20:24;;;;;;;8.20;5.00;;;11.10;95.10;;;;;;5025594;28;20946;-70
2021/05/04 00:22:50;;;;;;;4.67;4.30;;;11.10;95.50;;;;;;5028599;28;20342;-71
2021/05/04 00:25:15;;;;;;;4.90;4.50;;;11.00;94.10;;;;;;5017552;28;20707;-69
2021/05/04 00:27:41;;;;;;;5.43;5.00;;;11.10;93.10;;;;;;5018631;28;20336;-73
2021/05/04 00:30:07;;;;;;;5.13;4.60;;;11.10;92.70;;;;;;5026209;28;20192;-70
2021/05/04 00:32:33;;;;;;;5.27;4.70;;;11.00;92.10;;;;;;5029033;28;20903;-70
2021/05/04 00:34:58;;;;;;;4.67;4.37;;;11.10;91.70;;;;;;5028999;28;20431;-70
2021/05/04 00:37:24;;;;;;;5.20;4.80;;;11.10;92.00;;;;;;5025455;28;20193;-70
2021/05/04 00:39:49;;;;;;;5.10;4.70;;;11.10;91.40;;;;;;5023282;28;20301;-68
2021/05/04 00:42:15;;;;;;;6.67;4.30;;;11.10;91.10;;;;;;5031351;28;20266;-72
2021/05/04 00:44:41;;;;;;;4.50;4.20;;;11.20;91.10;;;;;;5032394;28;20640;-70
2021/05/04 00:47:06;;;;;;;4.50;4.10;;;11.20;90.70;;;;;;5030687;28;20199;-69
2021/05/04 00:49:32;;;;;;;4.93;4.53;;;11.20;90.50;;;;;;5029599;28;20188;-68
2021/05/04 00:51:58;;;;;;;5.10;4.70;;;11.20;90.30;;;;;;5028439;28;20814;-71
2021/05/04 00:54:24;;;;;;;6.30;5.70;;;11.20;90.40;;;;;;5030278;28;20196;-69
2021/05/04 00:56:54;;;;;;;4.30;4.00;;;11.30;90.40;;;;;;5025648;28;20709;-69
2021/05/04 00:59:23;;;;;;;4.80;4.40;;;11.20;89.70;;;;;;5029690;28;20509;-72
2021/05/04 01:01:52;;;;;;;5.30;4.80;;;11.20;89.80;;;;;;5026659;28;20470;-70
2021/05/04 01:04:19;;;;;;;4.70;4.17;;;11.20;89.70;;;;;;5027208;28;20432;-69
2021/05/04 01:06:45;;;;;;;4.57;4.27;;;11.30;89.70;;;;;;5031633;28;20459;-69
2021/05/04 01:09:14;;;;;;;5.20;4.80;;;11.30;89.10;;;;;;5030852;28;20540;-69
2021/05/04 01:11:40;;;;;;;5.17;4.70;;;11.20;88.80;;;;;;5028324;28;20196;-67
2021/05/04 01:14:05;;;;;;;5.20;4.80;;;11.20;88.60;;;;;;5028556;28;20439;-72
2021/05/04 01:16:31;;;;;;;5.33;4.83;;;11.20;88.40;;;;;;5036024;28;20451;-68
2021/05/04 01:18:56;;;;;;;4.40;4.00;;;11.20;88.20;;;;;;5039113;28;20193;-69
2021/05/04 01:21:22;;;;;;;5.30;4.80;;;11.20;88.10;;;;;;5029764;28;20208;-68
2021/05/04 01:23:48;;;;;;;4.37;4.07;;;11.20;87.60;;;;;;5028495;28;20180;-69
2021/05/04 01:26:13;;;;;;;4.80;4.50;;;11.20;87.50;;;;;;5033312;28;20201;-70
2021/05/04 01:28:40;;;;;;;4.40;4.10;;;11.20;87.30;;;;;;5028978;28;20187;-69
2021/05/04 01:31:05;;;;;;;5.07;4.67;;;11.20;87.30;;;;;;5030393;28;20224;-70
2021/05/04 01:33:31;;;;;;;5.23;4.57;;;11.20;87.20;;;;;;5028769;28;20437;-70
2021/05/04 01:35:57;;;;;;;5.23;4.00;;;11.20;87.00;;;;;;5028137;28;20691;-71
2021/05/04 01:38:23;;;;;;;5.33;4.23;;;11.20;86.70;;;;;;5030431;28;20253;-70
2021/05/04 01:40:49;;;;;;;4.20;3.80;;;11.20;86.80;;;;;;5023736;28;20188;-69
2021/05/04 01:43:15;;;;;;;5.00;4.00;;;11.20;86.50;;;;;;5027296;28;20236;-73
2021/05/04 01:45:40;;;;;;;4.50;4.20;;;11.20;86.30;;;;;;5030445;28;20859;-69
2021/05/04 01:48:06;;;;;;;4.30;4.00;;;11.30;85.20;;;;;;5028685;28;20185;-72
2021/05/04 01:50:32;;;;;;;4.67;4.27;;;11.40;85.00;;;;;;5030951;28;20200;-71
2021/05/04 01:52:57;;;;;;;4.37;4.07;;;11.40;85.00;;;;;;5029024;28;20454;-69
2021/05/04 01:55:23;;;;;;;4.47;4.07;;;11.30;84.40;;;;;;5029014;28;20196;-69
2021/05/04 01:57:48;;;;;;;5.03;4.63;;;11.40;84.30;;;;;;5029933;28;20805;-68
2021/05/04 02:00:15;;;;;;;4.20;3.90;;;11.40;84.20;;;;;;5031384;28;20188;-70
2021/05/04 02:02:40;;;;;;;4.20;3.90;;;11.40;84.00;;;;;;5026113;28;20307;-67
2021/05/04 02:05:06;;;;;;;3.77;3.50;;;11.30;82.70;;;;;;5030874;28;20566;-72
2021/05/04 02:07:32;;;;;;;4.20;3.90;;;11.30;82.70;;;;;;5025446;28;20639;-69
2021/05/04 02:09:58;;;;;;;4.80;4.40;;;11.30;82.40;;;;;;5029992;28;20449;-69
2021/05/04 02:12:24;;;;;;;4.30;4.00;;;11.30;81.50;;;;;;5027471;28;20952;-72
2021/05/04 02:14:51;;;;;;;4.67;4.37;;;11.30;81.40;;;;;;5033947;28;20210;-70
2021/05/04 02:17:16;;;;;;;4.03;3.73;;;11.40;80.80;;;;;;5025930;28;20564;-68
2021/05/04 02:19:42;;;;;;;5.80;4.30;;;11.50;80.50;;;;;;5024225;28;20644;-73
2021/05/04 02:22:08;;;;;;;4.60;4.20;;;11.50;79.40;;;;;;5025733;28;20247;-67
2021/05/04 02:24:33;;;;;;;4.60;4.20;;;11.60;79.60;;;;;;5028757;28;20176;-69
2021/05/04 02:26:59;;;;;;;4.60;4.20;;;11.70;79.10;;;;;;5026352;28;20181;-69
2021/05/04 02:29:24;;;;;;;4.90;4.20;;;11.70;78.70;;;;;;5030649;28;20330;-73
2021/05/04 02:31:50;;;;;;;4.70;4.40;;;11.80;78.50;;;;;;5029251;28;20257;-68
2021/05/04 02:34:16;;;;;;;4.40;4.00;;;11.90;78.10;;;;;;5031412;28;20242;-68
2021/05/04 02:36:41;;;;;;;4.43;4.13;;;12.00;77.60;;;;;;5028726;28;20715;-71
2021/05/04 02:39:07;;;;;;;4.53;4.23;;;12.00;77.60;;;;;;5030151;28;20193;-70
2021/05/04 02:41:34;;;;;;;4.30;4.00;;;12.10;77.40;;;;;;5029436;28;20211;-71
2021/05/04 02:44:01;;;;;;;4.10;3.80;;;12.20;78.30;;;;;;5027994;28;20426;-70
2021/05/04 02:46:30;;;;;;;4.60;4.30;;;12.30;76.90;;;;;;5027938;28;20501;-66
2021/05/04 02:48:56;;;;;;;3.83;3.63;;;12.30;77.00;;;;;;5028659;28;20428;-69
2021/05/04 02:51:22;;;;;;;4.80;4.40;;;12.40;76.60;;;;;;5026122;28;20574;-68
2021/05/04 02:53:48;;;;;;;4.10;3.80;;;12.50;76.10;;;;;;5024799;28;20534;-68
2021/05/04 02:56:13;;;;;;;4.63;4.33;;;12.50;76.20;;;;;;5025852;28;20189;-68
2021/05/04 02:58:39;;;;;;;4.77;4.37;;;12.40;75.90;;;;;;5028189;28;20188;-69
2021/05/04 03:01:05;;;;;;;4.50;4.20;;;12.60;76.00;;;;;;5022605;28;20210;-69
2021/05/04 03:03:34;;;;;;;4.20;3.90;;;12.60;75.60;;;;;;5026512;28;20713;-69
2021/05/04 03:06:00;;;;;;;4.23;3.93;;;12.70;75.40;;;;;;5033107;28;20972;-70
2021/05/04 03:08:25;;;;;;;4.10;3.80;;;12.70;75.30;;;;;;5028883;28;20431;-71
2021/05/04 03:10:51;;;;;;;4.47;4.17;;;12.80;74.80;;;;;;5025279;28;20245;-72
2021/05/04 03:13:24;;;;;;;4.10;3.80;;;12.80;74.70;;;;;;5030471;28;20176;-70
2021/05/04 03:15:50;;;;;;;3.93;3.73;;;12.90;75.00;;;;;;5029030;28;20497;-68
2021/05/04 03:18:16;;;;;;;4.67;4.37;;;12.90;75.00;;;;;;5030484;28;20487;-68
2021/05/04 03:20:41;;;;;;;4.10;3.80;;;12.90;74.80;;;;;;5028816;28;20432;-68
2021/05/04 03:23:07;;;;;;;4.33;4.03;;;13.00;74.90;;;;;;5028457;28;20201;-69
2021/05/04 03:25:33;;;;;;;4.57;4.27;;;13.00;74.60;;;;;;5020978;28;20181;-70
2021/05/04 03:27:59;;;;;;;4.53;4.13;;;13.00;74.50;;;;;;5021537;28;20252;-67
2021/05/04 03:30:26;;;;;;;4.50;4.10;;;13.00;74.20;;;;;;5025664;28;20227;-68
2021/05/04 03:32:51;;;;;;;4.23;3.93;;;13.00;74.00;;;;;;5028540;28;20534;-68
2021/05/04 03:35:18;;;;;;;5.37;4.30;;;13.00;74.20;;;;;;5026440;28;20440;-71
2021/05/04 03:37:44;;;;;;;4.50;4.10;;;13.10;73.70;;;;;;5025740;28;20179;-72
2021/05/04 03:40:10;;;;;;;4.47;4.17;;;13.10;73.20;;;;;;5026630;28;20435;-71
2021/05/04 03:42:36;;;;;;;6.30;4.00;;;13.20;73.30;;;;;;5025872;28;20494;-73
2021/05/04 03:45:02;;;;;;;4.47;4.00;;;13.20;73.30;;;;;;5029806;28;22458;-72
2021/05/04 03:47:27;;;;;;;4.50;4.20;;;13.10;73.00;;;;;;5025807;28;20180;-71
2021/05/04 03:49:53;;;;;;;4.60;4.30;;;13.20;73.30;;;;;;5027335;28;20264;-69
2021/05/04 03:52:18;;;;;;;5.43;4.53;;;13.30;73.10;;;;;;5021510;28;20203;-68
2021/05/04 03:54:45;;;;;;;4.17;3.87;;;13.40;72.90;;;;;;5027680;28;20266;-70
2021/05/04 03:57:11;;;;;;;5.10;4.60;;;13.30;72.80;;;;;;5029295;28;20247;-70
2021/05/04 03:59:36;;;;;;;4.80;4.40;;;13.40;72.70;;;;;;5029058;28;20505;-69
2021/05/04 04:02:02;;;;;;;4.40;4.03;;;13.40;72.90;;;;;;5023367;28;20617;-71
2021/05/04 04:04:28;;;;;;;4.30;4.00;;;13.40;72.70;;;;;;5033848;28;20202;-69
2021/05/04 04:06:53;;;;;;;4.03;3.63;;;13.40;72.40;;;;;;5034123;28;20181;-71
2021/05/04 04:09:19;;;;;;;4.10;3.80;;;13.50;72.20;;;;;;5034185;28;20172;-73
2021/05/04 04:11:45;;;;;;;4.27;3.97;;;13.50;72.20;;;;;;5029796;28;20211;-69
2021/05/04 04:14:10;;;;;;;7.97;4.70;;;13.50;71.80;;;;;;5024297;28;20185;-69
2021/05/04 04:16:36;;;;;;;4.23;3.93;;;13.50;71.70;;;;;;5028360;28;20177;-72
2021/05/04 04:19:02;;;;;;;7.27;4.10;;;13.60;71.70;;;;;;5031025;28;20183;-74
2021/05/04 04:21:27;;;;;;;5.10;4.00;;;13.60;71.30;;;;;;5023915;28;20204;-68
2021/05/04 04:23:53;;;;;;;8.23;4.03;;;13.70;71.90;;;;;;5028705;28;20682;-73
2021/05/04 04:26:18;;;;;;;4.00;3.70;;;13.70;70.90;;;;;;5031932;28;20195;-68
2021/05/04 04:28:44;;;;;;;7.80;4.23;;;13.70;71.10;;;;;;5028058;28;20643;-69
2021/05/04 04:31:09;;;;;;;5.63;4.40;;;13.80;70.60;;;;;;5033560;28;20207;-68
2021/05/04 04:33:35;;;;;;;4.57;4.07;;;13.80;70.30;;;;;;5031917;28;20196;-72
2021/05/04 04:36:01;;;;;;;4.30;4.00;;;13.90;70.20;;;;;;5032221;28;20613;-73
2021/05/04 04:38:26;;;;;;;4.67;4.20;;;13.90;70.00;;;;;;5030458;28;20706;-69
2021/05/04 04:40:52;;;;;;;11.03;4.40;;;13.90;69.40;;;;;;5031321;28;20211;-69
2021/05/04 04:43:18;;;;;;;4.80;4.40;;;13.90;68.90;;;;;;5029383;28;20212;-69
2021/05/04 04:45:43;;;;;;;3.83;3.60;;;14.00;68.70;;;;;;5028011;28;20192;-70
2021/05/04 04:48:09;;;;;;;8.10;4.70;;;14.00;68.90;;;;;;5030388;28;20945;-69
2021/05/04 04:50:35;;;;;;;4.17;3.87;;;14.10;69.00;;;;;;5031832;28;20181;-68
2021/05/04 04:53:01;;;;;;;5.13;4.73;;;14.00;67.90;;;;;;5032404;28;20205;-70
2021/05/04 04:55:27;;;;;;;5.00;4.60;;;14.10;68.60;;;;;;5037348;28;20217;-71
2021/05/04 04:57:52;;;;;;;6.30;4.37;;;14.10;68.60;;;;;;5033822;28;20583;-70
2021/05/04 05:00:18;;;;;;;5.33;4.80;;;14.10;68.00;;;;;;5030820;28;20189;-69
2021/05/04 05:02:44;;;;;;;4.33;4.03;;;14.10;67.90;;;;;;5026476;28;20209;-71
2021/05/04 05:05:10;;;;;;;4.87;4.33;;;14.20;68.10;;;;;;5027055;28;20781;-69
2021/05/04 05:07:36;;;;;;;4.43;4.07;;;14.20;67.90;;;;;;5025943;28;20234;-72
2021/05/04 05:10:01;;;;;;;4.07;3.77;;;14.20;66.80;;;;;;5027955;28;20426;-67
2021/05/04 05:12:27;;;;;;;4.60;4.20;;;14.20;67.00;;;;;;5027470;28;20262;-67
2021/05/04 05:14:53;;;;;;;4.50;4.20;;;14.30;67.30;;;;;;5030672;28;20695;-68
2021/05/04 05:17:20;;;;;;;4.10;3.70;;;14.30;67.30;;;;;;5031154;28;20737;-68
2021/05/04 05:19:46;;;;;;;4.73;4.33;;;14.30;67.20;;;;;;5026219;28;20447;-69
2021/05/04 05:22:11;;;;;;;6.20;3.97;;;14.20;67.60;;;;;;5028189;28;20512;-71
2021/05/04 05:24:38;;;;;;;4.37;4.03;;;14.20;67.20;;;;;;5028408;28;20204;-69
2021/05/04 05:27:04;;;;;;;4.40;4.00;;;14.20;67.50;;;;;;5025567;28;20306;-69
2021/05/04 05:29:31;;;;;;;4.30;4.00;;;14.20;67.90;;;;;;5021171;28;21253;-69
2021/05/04 05:31:57;;;;;;;4.13;3.73;;;14.20;67.60;;;;;;5025333;28;20880;-72
2021/05/04 05:34:23;;;;;;;5.50;4.17;;;14.30;67.20;;;;;;5018253;28;20462;-70
2021/05/04 05:36:49;;;;;;;4.33;3.93;;;14.30;67.20;;;;;;5020123;28;20651;-71
2021/05/04 05:39:16;;;;;;;7.73;4.47;;;14.20;66.80;;;;;;5027697;28;20450;-70
2021/05/04 05:41:42;;;;;;;4.93;4.23;;;14.30;67.30;;;;;;5027271;28;20220;-69
2021/05/04 05:44:08;;;;;;;3.77;3.50;;;14.30;66.90;;;;;;5027514;28;20443;-69
2021/05/04 05:46:33;;;;;;;7.53;4.13;;;14.30;66.60;;;;;;5025877;28;20432;-70
2021/05/04 05:48:59;;;;;;;4.70;4.30;;;14.40;66.80;;;;;;5026672;28;20419;-69
2021/05/04 05:51:26;;;;;;;4.43;4.10;;;14.40;66.50;;;;;;5023868;28;20235;-69
2021/05/04 05:53:53;;;;;;;7.73;4.93;;;14.50;66.70;;;;;;5020977;28;20428;-74
2021/05/04 05:56:18;;;;;;;4.30;4.00;;;14.60;66.20;;;;;;5004085;28;20435;-69
2021/05/04 05:58:44;;;;;;;9.30;4.43;;;14.70;66.30;;;;;;5021093;28;22050;-70
2021/05/04 06:01:10;;;;;;;5.70;4.47;;;14.70;65.70;;;;;;5017835;28;20289;-70
2021/05/04 06:03:36;;;;;;;4.50;3.90;;;14.80;65.60;;;;;;5019900;28;20647;-74
2021/05/04 06:06:02;;;;;;;6.27;5.23;;;14.90;64.60;;;;;;5052842;28;20181;-68
2021/05/04 06:08:27;;;;;;;4.33;4.03;;;15.00;63.90;;;;;;5024001;28;20230;-70
2021/05/04 06:10:53;;;;;;;4.57;4.27;;;15.00;64.30;;;;;;5025838;28;20433;-72
2021/05/04 06:13:20;;;;;;;4.70;4.40;;;15.10;63.80;;;;;;5018868;28;20204;-68
2021/05/04 06:15:46;;;;;;;4.73;4.20;;;15.20;63.80;;;;;;5019823;28;20289;-70
2021/05/04 06:18:12;;;;;;;4.77;3.90;;;15.20;63.60;;;;;;5021859;28;20446;-67
2021/05/04 06:20:38;;;;;;;5.93;3.83;;;15.20;62.80;;;;;;5019823;28;20439;-70
2021/05/04 06:23:05;;;;;;;4.50;4.20;;;15.30;61.90;;;;;;5013070;28;20475;-68
2021/05/04 06:25:31;;;;;;;4.87;4.57;;;15.30;62.10;;;;;;5021179;28;20208;-70
2021/05/04 06:28:16;;;;;;;4.20;3.90;;;15.40;63.30;;;;;;5020791;28;20817;-72
2021/05/04 06:30:42;;;;;;;9.90;4.00;;;15.50;62.50;;;;;;5023155;28;20467;-68
2021/05/04 06:33:09;;;;;;;4.50;4.20;;;15.50;62.20;;;;;;5026313;28;20494;-71
2021/05/04 06:35:40;;;;;;;4.53;4.10;;;15.50;61.60;;;;;;5024653;28;20192;-68
2021/05/04 06:38:07;;;;;;;4.80;4.37;;;15.40;60.80;;;;;;5025413;28;20431;-69
2021/05/04 06:40:33;;;;;;;5.30;4.90;;;15.40;61.20;;;;;;5022613;28;20435;-69
2021/05/04 06:43:01;;;;;;;4.90;4.60;;;15.50;61.60;;;;;;5021343;28;21043;-69
2021/05/04 06:45:27;;;;;;;4.50;4.10;;;15.50;61.50;;;;;;5024646;28;20444;-70
2021/05/04 06:47:53;;;;;;;4.30;4.00;;;15.50;61.10;;;;;;5024854;28;20849;-70
2021/05/04 06:50:18;;;;;;;4.20;3.90;;;15.50;61.10;;;;;;5023897;28;20423;-70
2021/05/04 06:52:44;;;;;;;5.70;4.10;;;15.60;61.20;;;;;;5021717;28;20475;-72
2021/05/04 06:55:11;;;;;;;4.30;4.10;;;15.60;60.60;;;;;;5024702;28;20196;-67
2021/05/04 06:57:37;;;;;;;4.97;4.43;;;15.70;60.50;;;;;;5024170;28;20562;-73
2021/05/04 07:00:04;;;;;;;4.80;4.40;;;15.70;59.90;;;;;;5023480;28;20435;-71
2021/05/04 07:02:30;;;;;;;4.50;4.20;;;15.80;60.30;;;;;;5023945;28;20875;-70
2021/05/04 07:04:56;;;;;;;5.80;4.53;;;15.80;60.00;;;;;;5006871;28;20462;-70
2021/05/04 07:07:21;;;;;;;9.50;4.30;;;15.90;60.30;;;;;;5028621;28;20180;-68
2021/05/04 07:09:47;;;;;;;4.83;4.53;;;15.90;60.50;;;;;;5024115;28;20565;-73
2021/05/04 07:12:13;;;;;;;4.80;4.30;;;15.90;60.60;;;;;;5023243;28;20215;-70
2021/05/04 07:14:39;;;;;;;5.03;4.73;;;16.00;59.50;;;;;;5021339;28;20235;-69
2021/05/04 07:17:06;;;;;;;4.50;4.10;;;15.90;59.60;;;;;;5026492;28;20183;-69
2021/05/04 07:19:31;;;;;;;5.33;4.27;;;15.90;60.50;;;;;;5024523;28;20427;-70
2021/05/04 07:21:57;;;;;;;7.83;5.07;;;16.00;60.70;;;;;;5024883;28;20466;-71
2021/05/04 07:24:23;;;;;;;5.90;5.27;;;16.00;60.20;;;;;;5025713;28;20188;-71
2021/05/04 07:26:49;;;;;;;4.90;4.50;;;15.90;60.70;;;;;;5022267;28;20216;-70
2021/05/04 07:29:15;;;;;;;4.60;4.20;;;16.00;60.90;;;;;;5022447;28;20474;-70
2021/05/04 07:31:42;;;;;;;5.17;4.70;;;16.00;61.10;;;;;;5022328;28;20204;-69
2021/05/04 07:34:08;;;;;;;5.40;4.90;;;16.10;61.40;;;;;;5028073;28;20430;-71
2021/05/04 07:36:34;;;;;;;4.83;4.07;;;15.90;60.60;;;;;;5021212;28;20435;-70
2021/05/04 07:39:00;;;;;;;4.03;3.73;;;15.90;61.40;;;;;;5024065;28;20419;-69
2021/05/04 07:41:26;;;;;;;4.40;4.10;;;15.90;61.40;;;;;;5023968;28;20220;-70
2021/05/04 07:43:51;;;;;;;4.70;4.30;;;16.00;62.00;;;;;;5025182;28;20618;-69
2021/05/04 07:46:17;;;;;;;4.87;4.47;;;16.00;61.60;;;;;;5023091;28;20443;-69
2021/05/04 07:48:43;;;;;;;5.53;5.00;;;16.00;61.20;;;;;;5026005;28;20184;-69
2021/05/04 07:51:09;;;;;;;5.23;4.80;;;16.00;61.60;;;;;;5022110;28;20235;-71
2021/05/04 07:53:34;;;;;;;5.10;4.63;;;16.00;61.40;;;;;;5019403;28;20191;-71
2021/05/04 07:56:00;;;;;;;5.47;4.87;;;15.80;61.20;;;;;;5022459;28;20195;-69
2021/05/04 07:58:26;;;;;;;5.80;4.20;;;15.90;61.60;;;;;;5024901;28;20231;-71
2021/05/04 08:00:53;;;;;;;7.90;4.87;;;16.00;61.80;;;;;;5024906;28;20316;-69
2021/05/04 08:03:18;;;;;;;5.50;4.90;;;16.00;61.50;;;;;;5020684;28;20981;-70
2021/05/04 08:05:44;;;;;;;5.10;4.60;;;16.00;61.70;;;;;;5019685;28;20453;-69
2021/05/04 08:08:12;;;;;;;4.67;4.37;;;16.10;62.00;;;;;;5022350;28;20192;-71
2021/05/04 08:10:38;;;;;;;4.20;3.90;;;16.20;61.90;;;;;;5019121;28;20189;-69
2021/05/04 08:13:04;;;;;;;10.13;4.60;;;16.30;61.60;;;;;;5021465;28;20548;-69
2021/05/04 08:15:31;;;;;;;4.60;4.20;;;16.40;61.90;;;;;;5021890;28;20465;-70
2021/05/04 08:18:00;;;;;;;5.00;4.50;;;16.60;61.80;;;;;;5019578;28;20431;-70
2021/05/04 08:20:31;;;;;;;4.60;4.20;;;16.70;60.90;;;;;;5023821;28;20470;-70
2021/05/04 08:22:57;;;;;;;5.00;4.60;;;16.70;60.60;;;;;;5021698;28;21187;-73
2021/05/04 08:25:23;;;;;;;5.73;4.77;;;16.60;59.60;;;;;;5021699;28;20450;-68
2021/05/04 08:27:49;;;;;;;4.43;4.13;;;16.60;60.50;;;;;;5020375;28;20184;-70
2021/05/04 08:30:15;;;;;;;5.00;4.60;;;16.60;60.60;;;;;;5021991;28;20217;-70
2021/05/04 08:32:41;;;;;;;4.40;4.10;;;16.70;60.80;;;;;;5028263;28;20459;-69
2021/05/04 08:35:08;;;;;;;4.90;4.50;;;16.80;60.20;;;;;;5024675;28;20426;-69
2021/05/04 08:37:33;;;;;;;7.57;5.00;;;16.70;59.90;;;;;;5025982;28;20431;-69
2021/05/04 08:39:59;;;;;;;5.17;4.87;;;16.70;60.10;;;;;;5022772;28;20485;-70
2021/05/04 08:42:27;;;;;;;6.20;4.60;;;16.80;59.90;;;;;;5026041;28;20231;-71
2021/05/04 08:44:53;;;;;;;5.83;4.90;;;16.90;60.00;;;;;;5022699;28;20553;-71
2021/05/04 08:47:21;;;;;;;5.53;5.00;;;17.00;59.90;;;;;;5019140;28;20530;-71
2021/05/04 08:49:48;;;;;;;4.50;4.20;;;16.80;59.60;;;;;;5021751;28;20428;-72
2021/05/04 08:52:13;;;;;;;5.30;4.80;;;16.90;59.70;;;;;;5025591;28;20449;-69
2021/05/04 08:54:40;;;;;;;6.00;4.77;;;16.90;60.30;;;;;;5022681;28;20439;-71
2021/05/04 08:57:05;;;;;;;5.10;4.60;;;17.00;59.70;;;;;;5030196;28;20193;-70
2021/05/04 08:59:31;;;;;;;5.10;4.60;;;17.10;60.00;;;;;;5029583;28;20858;-71
2021/05/04 09:01:57;;;;;;;4.67;4.33;;;17.30;59.80;;;;;;5026317;28;20811;-70
2021/05/04 09:04:35;;;;;;;4.60;4.20;;;17.50;59.20;;;;;;5027075;28;20446;-71
2021/05/04 09:07:32;;;;;;;5.00;4.50;;;17.40;59.00;;;;;;5027705;28;20200;-73
2021/05/04 09:10:35;;;;;;;5.07;4.67;;;17.60;59.40;;;;;;5024654;28;20481;-72
2021/05/04 09:13:05;;;;;;;4.70;4.40;;;17.60;58.00;;;;;;5026721;28;20450;-71
2021/05/04 09:21:36;;;;;;;5.07;4.67;;;17.60;58.30;;;;;;5033274;28;20504;-70
2021/05/04 09:24:17;;;;;;;5.90;4.40;;;17.50;56.00;;;;;;5028991;28;20422;-72
2021/05/04 09:26:44;;;;;;;7.47;4.50;;;17.50;56.80;;;;;;5019900;28;20522;-69
2021/05/04 09:29:11;;;;;;;4.47;4.17;;;17.30;57.20;;;;;;5020167;28;20578;-70
2021/05/04 09:31:39;;;;;;;6.70;4.50;;;17.30;57.80;;;;;;5022559;28;20458;-69
2021/05/04 09:34:13;;;;;;;5.07;4.67;;;17.30;56.80;;;;;;5020231;28;20869;-72
2021/05/04 09:36:44;;;;;;;5.10;4.40;;;17.30;56.60;;;;;;5023269;28;20423;-70
2021/05/04 09:39:24;;;;;;;4.20;3.90;;;17.30;55.30;;;;;;5023525;28;20893;-69
2021/05/04 09:41:50;;;;;;;4.97;4.43;;;17.30;55.90;;;;;;5026945;28;20871;-69
2021/05/04 09:44:35;;;;;;;4.60;4.30;;;17.10;56.50;;;;;;5020804;28;20590;-69
2021/05/04 09:47:01;;;;;;;4.17;3.87;;;17.00;58.30;;;;;;5022667;28;20184;-71
2021/05/04 09:49:33;;;;;;;5.77;4.03;;;16.90;57.70;;;;;;5021746;28;20432;-70
2021/05/04 09:52:33;;;;;;;4.87;4.50;;;16.60;57.50;;;;;;5021916;28;20673;-71
2021/05/04 09:55:17;;;;;;;4.13;3.83;;;16.50;58.10;;;;;;5018237;28;21150;-72
2021/05/04 09:57:49;;;;;;;4.07;3.77;;;16.30;58.30;;;;;;5025346;28;20489;-68
2021/05/04 10:00:21;;;;;;;4.13;3.87;;;16.20;58.10;;;;;;5011775;28;20467;-71
2021/05/04 10:02:50;;;;;;;4.43;4.17;;;16.10;57.70;;;;;;5023879;28;21050;-71
2021/05/04 10:05:18;;;;;;;9.33;4.10;;;15.90;55.50;;;;;;5029330;28;20467;-70
2021/05/04 10:07:45;;;;;;;4.00;3.80;;;15.90;55.30;;;;;;5028112;28;20423;-71
2021/05/04 10:10:13;;;;;;;4.00;3.70;;;16.00;54.70;;;;;;5027038;28;20457;-70
2021/05/04 10:12:42;;;;;;;4.40;4.03;;;16.00;53.60;;;;;;5026227;28;20549;-72
2021/05/04 10:15:13;;;;;;;4.10;3.80;;;16.10;53.50;;;;;;5023638;28;20455;-72
2021/05/04 10:17:40;;;;;;;4.60;4.20;;;16.10;53.20;;;;;;5023659;28;20509;-70
2021/05/04 10:20:07;;;;;;;4.20;3.80;;;16.10;53.60;;;;;;5017200;28;20797;-70
2021/05/04 10:22:35;;;;;;;4.20;3.90;;;16.10;54.10;;;;;;5020396;28;20467;-71
2021/05/04 10:25:01;;;;;;;4.97;4.57;;;16.00;54.10;;;;;;5028347;28;20434;-70
2021/05/04 10:27:28;;;;;;;4.67;4.27;;;15.90;54.70;;;;;;5024755;28;20427;-70
2021/05/04 10:29:54;;;;;;;4.53;4.10;;;15.90;55.60;;;;;;5025476;28;20485;-72
2021/05/04 10:33:10;;;;;;;4.30;4.00;;;15.90;55.70;;;;;;5025519;28;20455;-71
2021/05/04 10:35:42;;;;;;;8.37;4.90;;;15.80;54.60;;;;;;5018893;28;20422;-73
2021/05/04 10:38:13;;;;;;;4.13;3.93;;;15.80;54.50;;;;;;5020335;28;21050;-69
2021/05/04 10:40:57;;;;;;;9.10;4.30;;;15.80;53.80;;;;;;5056010;28;20997;-71
2021/05/04 10:43:23;;;;;;;4.43;4.03;;;15.70;54.40;;;;;;5018173;28;20859;-72
2021/05/04 10:45:56;;;;;;;3.90;3.63;;;15.80;55.30;;;;;;5024775;28;20441;-70
2021/05/04 10:48:41;;;;;;;4.07;3.77;;;15.70;57.90;;;;;;5018710;28;20188;-70
2021/05/04 10:51:13;;;;;;;4.87;4.37;;;15.70;58.40;;;;;;5026779;28;20407;-70
2021/05/04 10:54:05;;;;;;;7.23;4.60;;;15.50;60.20;;;;;;5023376;28;20436;-70
2021/05/04 10:56:42;;;;;;;5.10;4.70;;;15.40;63.50;;;;;;5021187;28;20976;-69
2021/05/04 10:59:13;;;;;;;4.50;4.10;;;15.20;65.30;;;;;;5027161;28;20451;-69
2021/05/04 11:01:39;;;;;;;4.90;4.50;;;15.00;66.60;;;;;;5017369;28;20448;-71
2021/05/04 11:04:06;;;;;;;3.83;3.63;;;14.90;71.50;;;;;;5018996;28;21147;-70
2021/05/04 11:06:32;;;;;;;4.53;3.97;;;14.80;73.30;;;;;;5020470;28;20184;-71
2021/05/04 11:08:58;;;;;;;4.37;4.07;;;14.70;75.20;;;;;;5025877;28;20433;-71
2021/05/04 11:11:37;;;;;;;3.80;3.33;;;14.60;78.00;;;;;;5025462;28;20200;-70
2021/05/04 11:14:04;;;;;;;4.63;4.20;;;14.50;80.20;;;;;;5025725;28;20423;-70
2021/05/04 11:16:47;;;;;;;4.03;3.73;;;14.40;82.20;;;;;;5021516;28;20443;-72
2021/05/04 11:19:34;;;;;;;4.20;3.90;;;14.30;85.40;;;;;;5017061;28;20427;-71
2021/05/04 11:22:00;;;;;;;4.03;3.70;;;14.20;86.00;;;;;;5025365;28;20467;-72
2021/05/04 11:27:06;;;;;;;4.00;3.67;;;14.20;90.20;;;;;;5026857;28;20445;-71
2021/05/04 11:29:31;;;;;;;3.90;3.60;;;14.10;91.20;;;;;;5021986;28;21114;-70
2021/05/04 11:32:28;;;;;;;4.20;3.90;;;14.00;90.80;;;;;;5018365;28;20442;-70
2021/05/04 11:35:01;;;;;;;3.70;3.40;;;14.00;90.70;;;;;;5028259;28;20173;-71
2021/05/04 11:37:28;;;;;;;4.00;3.70;;;13.90;91.70;;;;;;5022236;28;20451;-72
2021/05/04 11:39:59;;;;;;;4.90;4.60;;;13.80;91.10;;;;;;5025648;28;20810;-70
2021/05/04 11:42:46;;;;;;;4.10;3.80;;;13.80;91.40;;;;;;5022853;28;20554;-71
2021/05/04 11:45:29;;;;;;;4.60;4.10;;;13.80;91.40;;;;;;5023956;28;20930;-68
2021/05/04 11:47:56;;;;;;;4.00;3.70;;;13.90;91.40;;;;;;5018013;28;20471;-71
2021/05/04 11:50:28;;;;;;;4.10;3.80;;;14.00;91.70;;;;;;5016143;28;20423;-69
2021/05/04 11:53:05;;;;;;;4.37;4.00;;;14.00;91.50;;;;;;5019069;28;20454;-68
2021/05/04 11:55:33;;;;;;;3.87;3.67;;;14.00;91.30;;;;;;5017511;28;21001;-69
2021/05/04 11:58:00;;;;;;;3.80;3.50;;;14.10;91.10;;;;;;5016746;28;20944;-72
2021/05/04 12:00:28;;;;;;;4.10;3.80;;;14.10;91.60;;;;;;5024180;28;20938;-68
2021/05/04 12:02:54;;;;;;;3.80;3.50;;;14.10;91.70;;;;;;5015961;28;21014;-70
2021/05/04 12:05:30;;;;;;;4.13;3.60;;;14.20;90.90;;;;;;5015915;28;20443;-70
2021/05/04 12:07:58;;;;;;;4.57;3.87;;;14.20;90.20;;;;;;5027324;28;20681;-70
2021/05/04 12:10:37;;;;;;;3.97;3.67;;;14.20;89.80;;;;;;5022794;28;20467;-70
2021/05/04 12:13:06;;;;;;;4.10;3.80;;;14.20;89.90;;;;;;5025497;28;20521;-72
2021/05/04 12:15:34;;;;;;;4.77;3.70;;;14.20;90.10;;;;;;5022159;28;20968;-68
2021/05/04 12:18:03;;;;;;;4.10;3.80;;;14.20;89.20;;;;;;5023075;28;20458;-68
2021/05/04 12:20:35;;;;;;;3.93;3.57;;;14.30;88.30;;;;;;5026078;28;20475;-69
2021/05/04 12:23:04;;;;;;;3.93;3.60;;;14.30;88.50;;;;;;5020629;28;20469;-71
2021/05/04 12:25:46;;;;;;;6.60;3.80;;;14.40;88.20;;;;;;5027143;28;20439;-70
2021/05/04 12:28:26;;;;;;;3.77;3.47;;;14.30;87.90;;;;;;5028165;28;20492;-70
2021/05/04 12:31:00;;;;;;;3.90;3.67;;;14.30;88.10;;;;;;5029046;28;20427;-70
2021/05/04 12:33:26;;;;;;;5.70;3.70;;;14.30;88.80;;;;;;5027074;28;20419;-69
2021/05/04 12:38:41;;;;;;;3.97;3.67;;;14.20;88.80;;;;;;5030071;28;20192;-70
2021/05/04 12:41:27;;;;;;;5.10;4.07;;;14.20;89.30;;;;;;5025254;28;21045;-71
2021/05/04 12:44:10;;;;;;;4.87;3.90;;;14.10;89.00;;;;;;5028177;28;20945;-71
2021/05/04 12:46:42;;;;;;;4.43;4.13;;;14.20;89.80;;;;;;5030181;28;20941;-68
2021/05/04 12:49:07;;;;;;;6.60;4.03;;;14.20;88.60;;;;;;5029225;28;20441;-71
2021/05/04 12:51:35;;;;;;;3.87;3.63;;;14.10;88.30;;;;;;5032252;28;20462;-69
2021/05/04 12:54:21;;;;;;;4.23;3.77;;;14.10;89.10;;;;;;5027112;28;20199;-70
2021/05/04 12:56:54;;;;;;;5.57;3.80;;;14.10;88.60;;;;;;5024457;28;20450;-70
2021/05/04 12:59:28;;;;;;;3.80;3.60;;;14.10;88.70;;;;;;5018200;28;20751;-72
2021/05/04 13:01:55;;;;;;;4.93;3.40;;;14.10;89.40;;;;;;5020009;28;20447;-70
2021/05/04 13:05:08;;;;;;;3.27;3.07;;;14.20;89.10;;;;;;5024069;28;20454;-67